Time;durP1;ratioP1;P1;durP2;ratioP2;P2;SDS_P1;SDS_P2;PMS_P1;PMS_P2;Temp;Humidity;BMP_temperature;BMP_pressure;BME280_temperature;BME280_humidity;BME280_pressure;Samples;Min_cycle;Max_cycle;Signal;HPM_P1;HPM_P2
2022/10/16 00:00:12;;;;;;;;;;;;;;;16.92;81.29;99995.34;5035247;28;1234;-61
2022/10/16 00:02:38;;;;;;;;;;;;;;;16.92;80.67;99991.75;5035060;28;1976;-61
2022/10/16 00:05:03;;;;;;;;;;;;;;;16.92;80.29;99995.34;5034135;28;1883;-62
2022/10/16 00:07:28;;;;;;;;;;;;;;;16.92;81.00;100000.88;5034754;28;1647;-60
2022/10/16 00:09:53;;;;;;;;;;;;;;;16.92;80.26;99997.28;5034771;28;979;-62
2022/10/16 00:12:19;;;;;;;;;;;;;;;16.92;80.32;100002.81;5034893;28;1269;-61
2022/10/16 00:14:44;;;;;;;;;;;;;;;16.91;80.69;99990.13;5029771;28;1994;-62
2022/10/16 00:17:09;;;;;;;;;;;;;;;16.91;80.95;99995.66;5034639;28;1609;-61
2022/10/16 00:19:34;;;;;;;;;;;;;;;16.90;80.51;99994.84;5034914;28;885;-61
2022/10/16 00:21:59;;;;;;;;;;;;;;;16.89;80.29;100001.53;5034477;28;1977;-62
2022/10/16 00:24:24;;;;;;;;;;;;;;;16.88;81.01;99999.09;5033778;28;1980;-60
2022/10/16 00:26:50;;;;;;;;;;;;;;;16.88;81.29;99997.13;5034358;28;1763;-61
2022/10/16 00:29:15;;;;;;;;;;;;;;;16.88;80.82;99999.09;5034538;28;912;-61
2022/10/16 00:31:40;;;;;;;;;;;;;;;16.88;80.28;100008.19;5034702;28;1284;-61
2022/10/16 00:34:05;;;;;;;;;;;;;;;16.88;81.02;99999.91;5033786;28;1651;-61
2022/10/16 00:36:31;;;;;;;;;;;;;;;16.86;80.24;100007.72;5029093;28;1810;-62
2022/10/16 00:38:59;;;;;;;;;;;;;;;16.87;81.30;100009.34;5034401;28;1540;-59
2022/10/16 00:41:24;;;;;;;;;;;;;;;16.87;81.03;100012.09;5034323;28;1213;-61
2022/10/16 00:43:51;;;;;;;;;;;;;;;16.86;80.46;99999.41;5030105;28;1933;-62
2022/10/16 00:46:19;;;;;;;;;;;;;;;16.86;80.55;100001.38;5034201;28;1429;-62
2022/10/16 00:48:50;;;;;;;;;;;;;;;16.85;80.25;100000.56;5034248;28;1027;-61
2022/10/16 00:51:18;;;;;;;;;;;;;;;16.85;80.96;100008.84;5034102;28;1149;-62
2022/10/16 00:53:44;;;;;;;;;;;;;;;16.85;80.35;99999.75;5033171;28;1972;-60
2022/10/16 00:56:09;;;;;;;;;;;;;;;16.85;81.04;99999.75;5033804;28;1163;-62
2022/10/16 00:58:34;;;;;;;;;;;;;;;16.84;80.14;99990.63;5034108;28;1028;-61
2022/10/16 01:00:59;;;;;;;;;;;;;;;16.84;80.94;100007.22;5034116;28;1187;-60
2022/10/16 01:03:32;;;;;;;;;;;;;;;16.83;80.34;99996.53;5033115;28;1886;-61
2022/10/16 01:06:07;;;;;;;;;;;;;;;16.83;80.11;99997.34;5026517;28;1556;-61
2022/10/16 01:08:45;;;;;;;;;;;;;;;16.83;80.27;100010.34;5034123;28;860;-62
2022/10/16 01:11:17;;;;;;;;;;;;;;;16.83;80.22;100013.13;5033845;28;1207;-62
2022/10/16 01:13:45;;;;;;;;;;;;;;;16.82;81.23;100014.25;5033089;28;1952;-61
2022/10/16 01:16:10;;;;;;;;;;;;;;;16.82;80.28;100004.00;5033589;28;1616;-61
2022/10/16 01:18:44;;;;;;;;;;;;;;;16.81;80.58;100002.38;5033804;28;881;-62
2022/10/16 01:21:20;;;;;;;;;;;;;;;16.81;80.30;100004.34;5032987;28;1280;-61
2022/10/16 01:23:48;;;;;;;;;;;;;;;16.81;81.14;100009.88;5030803;28;1894;-62
2022/10/16 01:26:16;;;;;;;;;;;;;;;16.80;81.01;100009.06;5028432;28;1514;-62
2022/10/16 01:28:49;;;;;;;;;;;;;;;16.80;80.92;100008.25;5033727;28;1558;-62
2022/10/16 01:31:17;;;;;;;;;;;;;;;16.79;80.34;100010.19;5033464;28;1209;-60
2022/10/16 01:33:43;;;;;;;;;;;;;;;16.79;80.08;100001.91;5033533;28;1008;-61
2022/10/16 01:36:13;;;;;;;;;;;;;;;16.66;80.98;99994.66;5032405;28;1937;-61
2022/10/16 01:38:39;;;;;;;;;;;;;;;16.79;80.30;100012.97;5033571;28;1712;-61
2022/10/16 01:41:08;;;;;;;;;;;;;;;16.78;80.96;100016.84;5033417;28;1300;-61
2022/10/16 01:43:37;;;;;;;;;;;;;;;16.78;80.38;100016.84;5033274;28;1894;-62
2022/10/16 01:46:02;;;;;;;;;;;;;;;16.78;80.06;100027.91;5033142;28;825;-60
2022/10/16 01:48:29;;;;;;;;;;;;;;;16.77;80.45;100028.25;5032370;28;1961;-61
2022/10/16 01:50:59;;;;;;;;;;;;;;;16.77;80.21;100031.00;5032637;28;1976;-62
2022/10/16 01:53:25;;;;;;;;;;;;;;;16.76;80.86;100024.66;5033290;28;1610;-61
2022/10/16 01:55:52;;;;;;;;;;;;;;;16.76;80.25;100035.72;5033105;28;892;-59
2022/10/16 01:58:17;;;;;;;;;;;;;;;16.76;80.71;100035.72;5033225;28;853;-62
2022/10/16 02:00:44;;;;;;;;;;;;;;;16.76;80.92;100035.72;5032372;28;1981;-61
2022/10/16 02:03:10;;;;;;;;;;;;;;;16.76;80.18;100041.25;5032658;28;2034;-61
2022/10/16 02:05:41;;;;;;;;;;;;;;;16.76;80.35;100049.53;5033160;28;1534;-61
2022/10/16 02:08:06;;;;;;;;;;;;;;;16.75;80.13;100050.72;5032717;28;1932;-62
2022/10/16 02:10:31;;;;;;;;;;;;;;;16.74;80.54;100049.09;5033013;28;1304;-61
2022/10/16 02:13:05;;;;;;;;;;;;;;;16.75;80.55;100047.13;5031773;28;1055;-62
2022/10/16 02:15:31;;;;;;;;;;;;;;;16.74;80.54;100053.81;5032315;28;1625;-62
2022/10/16 02:17:56;;;;;;;;;;;;;;;16.73;80.81;100055.75;5032867;28;1623;-61
2022/10/16 02:20:25;;;;;;;;;;;;;;;16.74;80.15;100056.56;5032811;28;1204;-62
2022/10/16 02:22:50;;;;;;;;;;;;;;;16.73;80.68;100063.22;5032916;28;1902;-61
2022/10/16 02:25:21;;;;;;;;;;;;;;;16.71;80.25;100058.03;5033138;28;889;-60
2022/10/16 02:28:00;;;;;;;;;;;;;;;16.73;81.03;100057.72;5031181;28;1666;-62
2022/10/16 02:30:44;;;;;;;;;;;;;;;16.71;80.99;100054.47;5029405;28;1613;-60
2022/10/16 02:33:11;;;;;;;;;;;;;;;16.72;80.25;100053.31;5036222;28;859;-62
2022/10/16 02:35:36;;;;;;;;;;;;;;;16.71;81.02;100043.41;5036920;28;918;-61
2022/10/16 02:38:02;;;;;;;;;;;;;;;16.70;80.60;100042.59;5036551;28;893;-60
2022/10/16 02:40:27;;;;;;;;;;;;;;;16.70;80.46;100058.34;5034361;28;1715;-61
2022/10/16 02:42:54;;;;;;;;;;;;;;;16.71;80.93;100055.28;5036769;28;1890;-62
2022/10/16 02:45:19;;;;;;;;;;;;;;;16.71;80.28;100048.94;5036630;28;986;-61
2022/10/16 02:47:44;;;;;;;;;;;;;;;16.70;80.86;100048.13;5036468;28;1144;-61
2022/10/16 02:50:09;;;;;;;;;;;;;;;16.69;80.62;100045.69;5036558;28;1196;-62
2022/10/16 02:52:34;;;;;;;;;;;;;;;16.69;80.35;100040.97;5035643;28;1969;-61
2022/10/16 02:55:00;;;;;;;;;;;;;;;16.68;80.58;100044.06;5036509;28;1525;-61
2022/10/16 02:57:25;;;;;;;;;;;;;;;16.69;80.76;100040.16;5036181;28;1035;-62
2022/10/16 02:59:50;;;;;;;;;;;;;;;16.69;80.76;100042.91;5036465;28;793;-62
2022/10/16 03:02:15;;;;;;;;;;;;;;;16.68;81.09;100033.81;5036428;28;1886;-61
2022/10/16 03:04:40;;;;;;;;;;;;;;;16.68;80.00;100038.53;5029954;28;1773;-61
2022/10/16 03:07:06;;;;;;;;;;;;;;;16.68;80.20;100046.81;5033708;28;1889;-61
2022/10/16 03:09:31;;;;;;;;;;;;;;;16.67;80.26;100051.56;5036270;28;1608;-61
2022/10/16 03:11:56;;;;;;;;;;;;;;;16.67;80.17;100053.50;5036088;28;1193;-62
2022/10/16 03:14:21;;;;;;;;;;;;;;;16.67;80.27;100036.94;5035692;28;991;-61
2022/10/16 03:16:46;;;;;;;;;;;;;;;16.65;80.16;100040.03;5035224;28;1936;-62
2022/10/16 03:19:11;;;;;;;;;;;;;;;16.66;80.75;100041.66;5036078;28;1522;-61
2022/10/16 03:21:36;;;;;;;;;;;;;;;16.64;80.12;100044.75;5036209;28;1224;-61
2022/10/16 03:24:02;;;;;;;;;;;;;;;16.66;80.49;100051.88;5036051;28;1902;-60
2022/10/16 03:26:27;;;;;;;;;;;;;;;16.65;80.10;100048.31;5035790;28;888;-60
2022/10/16 03:28:52;;;;;;;;;;;;;;;16.64;80.53;100041.16;5034655;28;2143;-61
2022/10/16 03:31:17;;;;;;;;;;;;;;;16.66;80.57;100046.38;5035784;28;1496;-60
2022/10/16 03:33:42;;;;;;;;;;;;;;;16.64;80.38;100050.25;5035815;28;955;-61
2022/10/16 03:36:07;;;;;;;;;;;;;;;16.63;80.25;100059.69;5035599;28;841;-60
2022/10/16 03:38:33;;;;;;;;;;;;;;;16.63;80.11;100067.97;5035713;28;1055;-61
2022/10/16 03:40:58;;;;;;;;;;;;;;;16.64;80.28;100060.50;5034683;28;1900;-61
2022/10/16 03:43:23;;;;;;;;;;;;;;;16.62;80.49;100052.53;5034978;28;1897;-61
2022/10/16 03:45:50;;;;;;;;;;;;;;;16.62;80.62;100051.72;5035189;28;1581;-61
2022/10/16 03:48:15;;;;;;;;;;;;;;;16.62;80.32;100060.03;5035450;28;1031;-61
2022/10/16 03:50:40;;;;;;;;;;;;;;;16.62;80.75;100054.50;5035322;28;1204;-60
2022/10/16 03:53:05;;;;;;;;;;;;;;;16.62;80.19;100052.53;5032056;28;1690;-61
2022/10/16 03:55:30;;;;;;;;;;;;;;;16.61;80.07;100058.41;5032770;28;1610;-61
2022/10/16 03:57:56;;;;;;;;;;;;;;;16.60;80.70;100065.84;5035061;28;897;-60
2022/10/16 04:00:21;;;;;;;;;;;;;;;16.61;80.55;100073.03;5035199;28;1217;-61
2022/10/16 04:02:46;;;;;;;;;;;;;;;16.60;80.03;100060.31;5035313;28;1961;-61
2022/10/16 04:05:11;;;;;;;;;;;;;;;16.61;80.10;100069.44;5034268;28;1899;-61
2022/10/16 04:07:37;;;;;;;;;;;;;;;16.60;80.15;100059.50;5034914;28;1692;-61
2022/10/16 04:10:02;;;;;;;;;;;;;;;16.60;80.19;100070.56;5035158;28;833;-61
2022/10/16 04:12:28;;;;;;;;;;;;;;;16.59;80.70;100068.94;5034990;28;2008;-61
2022/10/16 04:14:53;;;;;;;;;;;;;;;16.58;79.98;100079.19;5035000;28;785;-60
2022/10/16 04:17:18;;;;;;;;;;;;;;;16.58;80.51;100072.88;5033987;28;1947;-59
2022/10/16 04:19:43;;;;;;;;;;;;;;;16.58;79.98;100081.97;5033758;28;1578;-60
2022/10/16 04:22:08;;;;;;;;;;;;;;;16.59;79.93;100085.50;5034651;28;1964;-61
2022/10/16 04:24:33;;;;;;;;;;;;;;;16.57;80.15;100072.06;5034927;28;881;-61
2022/10/16 04:26:59;;;;;;;;;;;;;;;16.58;79.87;100078.38;5034558;28;797;-61
2022/10/16 04:29:24;;;;;;;;;;;;;;;16.57;80.27;100077.56;5034698;28;821;-61
2022/10/16 04:31:49;;;;;;;;;;;;;;;16.57;80.21;100069.28;5033608;28;1810;-61
2022/10/16 04:34:14;;;;;;;;;;;;;;;16.57;80.03;100071.25;5034630;28;1687;-60
2022/10/16 04:36:39;;;;;;;;;;;;;;;16.57;80.34;100072.06;5034292;28;844;-61
2022/10/16 04:39:04;;;;;;;;;;;;;;;16.56;80.13;100067.66;5034769;28;936;-61
2022/10/16 04:41:29;;;;;;;;;;;;;;;16.56;80.10;100055.78;5034408;28;1272;-60
2022/10/16 04:43:55;;;;;;;;;;;;;;;16.56;79.75;100064.09;5028532;28;1996;-59
2022/10/16 04:46:20;;;;;;;;;;;;;;;16.55;80.16;100065.22;5034061;28;1607;-60
2022/10/16 04:48:46;;;;;;;;;;;;;;;16.55;80.50;100071.56;5034337;28;776;-61
2022/10/16 04:51:11;;;;;;;;;;;;;;;16.56;80.88;100097.25;5034446;28;1214;-61
2022/10/16 04:53:36;;;;;;;;;;;;;;;16.55;80.00;100096.44;5034320;28;992;-61
2022/10/16 04:56:02;;;;;;;;;;;;;;;16.56;80.70;100097.25;5028644;28;1923;-61
2022/10/16 04:58:27;;;;;;;;;;;;;;;16.54;80.10;100094.00;5034128;28;1571;-61
2022/10/16 05:00:52;;;;;;;;;;;;;;;16.56;80.44;100094.47;5034170;28;1203;-61
2022/10/16 05:03:17;;;;;;;;;;;;;;;16.54;80.97;100086.50;5033910;28;1894;-60
2022/10/16 05:05:46;;;;;;;;;;;;;;;16.55;80.11;100090.09;5033894;28;833;-58
2022/10/16 05:08:12;;;;;;;;;;;;;;;16.54;79.90;100085.69;5032994;28;2011;-60
2022/10/16 05:10:37;;;;;;;;;;;;;;;16.55;80.27;100101.97;5033844;28;1596;-61
2022/10/16 05:13:02;;;;;;;;;;;;;;;16.54;80.52;100103.09;5033848;28;980;-60
2022/10/16 05:15:28;;;;;;;;;;;;;;;16.54;79.82;100107.81;5034052;28;912;-61
2022/10/16 05:17:53;;;;;;;;;;;;;;;16.54;79.88;100105.84;5033511;28;842;-60
2022/10/16 05:20:19;;;;;;;;;;;;;;;16.53;80.01;100103.41;5032871;28;1901;-61
2022/10/16 05:22:44;;;;;;;;;;;;;;;16.52;80.00;100099.84;5033624;28;1890;-60
2022/10/16 05:25:09;;;;;;;;;;;;;;;16.52;80.37;100099.84;5033735;28;971;-61
2022/10/16 05:27:34;;;;;;;;;;;;;;;16.52;80.51;100115.59;5033481;28;794;-60
2022/10/16 05:29:59;;;;;;;;;;;;;;;16.53;80.17;100120.00;5033641;28;896;-61
2022/10/16 05:32:25;;;;;;;;;;;;;;;16.53;80.09;100122.75;5032071;28;1968;-61
2022/10/16 05:34:50;;;;;;;;;;;;;;;16.53;80.14;100131.03;5033641;28;1579;-60
2022/10/16 05:37:15;;;;;;;;;;;;;;;16.52;80.46;100134.94;5032414;28;1656;-61
2022/10/16 05:39:40;;;;;;;;;;;;;;;16.52;80.06;100138.53;5033377;28;1650;-61
2022/10/16 05:42:05;;;;;;;;;;;;;;;16.52;79.94;100140.47;5033336;28;1910;-61
2022/10/16 05:44:31;;;;;;;;;;;;;;;16.52;80.58;100152.34;5030652;28;1663;-61
2022/10/16 05:46:56;;;;;;;;;;;;;;;16.51;80.10;100139.66;5032993;28;1658;-61
2022/10/16 05:49:21;;;;;;;;;;;;;;;16.51;80.68;100131.38;5033140;28;1055;-60
2022/10/16 05:51:46;;;;;;;;;;;;;;;16.50;80.11;100126.19;5033230;28;1286;-60
2022/10/16 05:54:12;;;;;;;;;;;;;;;16.51;80.15;100125.03;5028350;28;1687;-60
2022/10/16 05:56:37;;;;;;;;;;;;;;;16.50;80.64;100134.50;5031112;28;1637;-60
2022/10/16 05:59:03;;;;;;;;;;;;;;;16.50;80.65;100145.53;5033168;28;999;-61
2022/10/16 06:01:28;;;;;;;;;;;;;;;16.51;80.22;100144.38;5033164;28;1225;-61
2022/10/16 06:03:53;;;;;;;;;;;;;;;16.51;80.29;100138.84;5033117;28;1960;-61
2022/10/16 06:06:20;;;;;;;;;;;;;;;16.55;80.15;100157.22;5029903;28;1615;-61
2022/10/16 06:08:46;;;;;;;;;;;;;;;16.55;80.13;100159.16;5039192;28;1558;-60
2022/10/16 06:11:12;;;;;;;;;;;;;;;16.55;80.81;100161.94;5039681;28;1193;-60
2022/10/16 06:13:38;;;;;;;;;;;;;;;16.54;80.23;100168.59;5039617;28;785;-60
2022/10/16 06:16:04;;;;;;;;;;;;;;;16.52;80.03;100163.38;5039763;28;818;-59
2022/10/16 06:18:29;;;;;;;;;;;;;;;16.52;80.09;100163.38;5038691;28;1857;-60
2022/10/16 06:20:55;;;;;;;;;;;;;;;16.51;79.93;100158.19;5039225;28;1618;-60
2022/10/16 06:23:20;;;;;;;;;;;;;;;16.52;80.66;100176.38;5039582;28;1906;-60
2022/10/16 06:25:46;;;;;;;;;;;;;;;16.50;80.66;100171.19;5039411;28;979;-60
2022/10/16 06:28:11;;;;;;;;;;;;;;;16.51;80.46;100177.53;5039479;28;833;-61
2022/10/16 06:30:36;;;;;;;;;;;;;;;16.51;80.22;100183.06;5038068;28;1664;-60
2022/10/16 06:33:01;;;;;;;;;;;;;;;16.50;80.31;100185.00;5034642;28;2172;-61
2022/10/16 06:35:26;;;;;;;;;;;;;;;16.50;80.22;100186.97;5038539;28;1871;-60
2022/10/16 06:37:52;;;;;;;;;;;;;;;16.50;80.38;100209.88;5039148;28;1591;-60
2022/10/16 06:40:17;;;;;;;;;;;;;;;16.49;80.33;100211.03;5039452;28;1142;-61
2022/10/16 06:42:43;;;;;;;;;;;;;;;16.50;80.57;100214.59;5039410;28;1894;-61
2022/10/16 06:45:08;;;;;;;;;;;;;;;16.48;80.11;100217.69;5039670;28;1022;-60
2022/10/16 06:47:33;;;;;;;;;;;;;;;16.49;79.89;100213.78;5037963;28;1974;-61
2022/10/16 06:49:58;;;;;;;;;;;;;;;16.49;80.14;100218.50;5039423;28;1518;-61
2022/10/16 06:52:23;;;;;;;;;;;;;;;16.49;79.97;100235.09;5039490;28;1149;-61
2022/10/16 06:54:49;;;;;;;;;;;;;;;16.50;80.16;100245.00;5039395;28;972;-61
2022/10/16 06:57:14;;;;;;;;;;;;;;;16.49;80.53;100235.09;5039072;28;1003;-60
2022/10/16 06:59:39;;;;;;;;;;;;;;;16.49;80.48;100235.09;5036789;28;1891;-61
2022/10/16 07:02:05;;;;;;;;;;;;;;;16.49;80.32;100232.31;5032838;28;1898;-60
2022/10/16 07:04:30;;;;;;;;;;;;;;;16.49;80.33;100235.91;5038558;28;1949;-60
2022/10/16 07:06:55;;;;;;;;;;;;;;;16.50;79.87;100239.47;5039030;28;1606;-61
2022/10/16 07:09:20;;;;;;;;;;;;;;;16.49;80.53;100238.66;5039436;28;801;-61
2022/10/16 07:11:45;;;;;;;;;;;;;;;16.49;80.00;100241.44;5038305;28;1629;-61
2022/10/16 07:14:18;;;;;;;;;;;;;;;16.49;80.61;100246.94;5039000;28;1590;-60
2022/10/16 07:16:43;;;;;;;;;;;;;;;16.46;80.86;100263.34;5038902;28;1664;-60
2022/10/16 07:19:08;;;;;;;;;;;;;;;16.42;81.63;100268.69;5036271;28;970;-61
2022/10/16 07:21:35;;;;;;;;;;;;;;;16.39;81.96;100263.84;5035993;28;1288;-61
2022/10/16 07:24:01;;;;;;;;;;;;;;;16.40;82.27;100259.13;5035995;28;1957;-61
2022/10/16 07:26:27;;;;;;;;;;;;;;;16.38;82.14;100259.47;5033129;28;1898;-61
2022/10/16 07:28:52;;;;;;;;;;;;;;;16.37;82.79;100277.16;5032114;28;1705;-61
2022/10/16 07:31:18;;;;;;;;;;;;;;;16.36;82.56;100288.53;5034036;28;2026;-60
2022/10/16 07:33:45;;;;;;;;;;;;;;;16.36;82.78;100285.78;5035979;28;1582;-60
2022/10/16 07:36:10;;;;;;;;;;;;;;;16.36;82.75;100280.25;5034760;28;1987;-61
2022/10/16 07:38:35;;;;;;;;;;;;;;;16.35;82.85;100293.25;5035782;28;1676;-60
2022/10/16 07:41:04;;;;;;;;;;;;;;;16.38;82.72;100303.66;5035930;28;1289;-61
2022/10/16 07:43:30;;;;;;;;;;;;;;;16.37;82.93;100304.78;5034659;28;1906;-61
2022/10/16 07:45:55;;;;;;;;;;;;;;;16.36;82.73;100294.88;5035188;28;1413;-61
2022/10/16 07:48:21;;;;;;;;;;;;;;;16.39;82.83;100296.19;5035752;28;826;-61
2022/10/16 07:50:46;;;;;;;;;;;;;;;16.37;82.22;100288.22;5034233;28;1668;-61
2022/10/16 07:53:11;;;;;;;;;;;;;;;16.38;82.81;100303.66;5034756;28;1684;-61
2022/10/16 07:55:37;;;;;;;;;;;;;;;16.37;82.42;100295.69;5035403;28;1576;-60
2022/10/16 07:58:02;;;;;;;;;;;;;;;16.40;82.77;100298.63;5035089;28;988;-61
2022/10/16 08:00:27;;;;;;;;;;;;;;;16.40;82.36;100314.38;5035252;28;1264;-60
2022/10/16 08:02:53;;;;;;;;;;;;;;;16.39;82.94;100321.84;5034432;28;1971;-60
2022/10/16 08:05:18;;;;;;;;;;;;;;;16.40;82.49;100320.72;5035118;28;1345;-60
2022/10/16 08:07:48;;;;;;;;;;;;;;;16.44;82.75;100323.63;5034962;28;1603;-61
2022/10/16 08:10:17;;;;;;;;;;;;;;;16.41;82.93;100307.72;5035064;28;1264;-60
2022/10/16 08:12:42;;;;;;;;;;;;;;;16.40;82.80;100319.91;5035037;28;1814;-60
2022/10/16 08:15:07;;;;;;;;;;;;;;;16.39;82.86;100321.03;5035014;28;999;-61
2022/10/16 08:17:32;;;;;;;;;;;;;;;16.41;82.65;100327.88;5033369;28;1928;-60
2022/10/16 08:19:58;;;;;;;;;;;;;;;16.41;82.85;100336.16;5030259;28;1862;-60
2022/10/16 08:22:23;;;;;;;;;;;;;;;16.41;83.25;100333.41;5034632;28;1963;-61
2022/10/16 08:24:48;;;;;;;;;;;;;;;16.42;82.58;100342.47;5034898;28;975;-60
2022/10/16 08:27:13;;;;;;;;;;;;;;;16.43;82.63;100335.81;5034590;28;1003;-61
2022/10/16 08:29:38;;;;;;;;;;;;;;;16.42;82.29;100337.75;5034723;28;793;-60
2022/10/16 08:32:03;;;;;;;;;;;;;;;16.41;82.48;100336.16;5033910;28;1715;-60
2022/10/16 08:34:29;;;;;;;;;;;;;;;16.44;82.16;100342.97;5025310;28;1755;-60
2022/10/16 08:36:54;;;;;;;;;;;;;;;16.46;81.76;100343.47;5034301;28;1646;-60
2022/10/16 08:39:20;;;;;;;;;;;;;;;16.47;82.21;100353.38;5034718;28;884;-61
2022/10/16 08:41:57;;;;;;;;;;;;;;;16.47;82.00;100353.38;5028624;28;1913;-60
2022/10/16 08:44:46;;;;;;;;;;;;;;;16.47;82.38;100350.63;5034340;28;1965;-61
2022/10/16 08:47:20;;;;;;;;;;;;;;;16.47;82.74;100359.72;5034245;28;1320;-61
2022/10/16 08:50:01;;;;;;;;;;;;;;;16.46;82.52;100362.81;5034372;28;987;-61
2022/10/16 08:52:29;;;;;;;;;;;;;;;16.46;82.10;100373.84;5034468;28;1173;-61
2022/10/16 08:54:55;;;;;;;;;;;;;;;16.44;82.35;100379.69;5032728;28;1892;-60
2022/10/16 08:57:21;;;;;;;;;;;;;;;16.42;82.52;100375.63;5034043;28;1584;-61
2022/10/16 08:59:46;;;;;;;;;;;;;;;16.44;82.95;100382.47;5034239;28;1011;-61
2022/10/16 09:02:24;;;;;;;;;;;;;;;16.42;82.92;100381.97;5034066;28;1959;-60
2022/10/16 09:05:03;;;;;;;;;;;;;;;16.43;82.64;100391.88;5034300;28;892;-60
2022/10/16 09:07:28;;;;;;;;;;;;;;;16.41;83.01;100388.66;5033896;28;884;-60
2022/10/16 09:09:56;;;;;;;;;;;;;;;16.42;82.67;100393.03;5033172;28;2046;-59
2022/10/16 09:12:26;;;;;;;;;;;;;;;16.42;83.17;100390.25;5033842;28;1608;-61
2022/10/16 09:14:54;;;;;;;;;;;;;;;16.45;82.03;100400.69;5025410;28;1957;-60
2022/10/16 09:17:27;;;;;;;;;;;;;;;16.45;82.43;100400.69;5033545;28;1570;-61
2022/10/16 09:19:58;;;;;;;;;;;;;;;16.45;82.80;100394.34;5033826;28;810;-60
2022/10/16 09:22:26;;;;;;;;;;;;;;;16.46;82.87;100407.00;5052882;23;2107;-61
2022/10/16 09:24:51;;;;;;;;;;;;;;;16.47;82.85;100405.88;5048217;28;1494;-60
2022/10/16 09:27:17;;;;;;;;;;;;;;;16.47;82.80;100405.88;5053257;28;1609;-60
2022/10/16 09:29:42;;;;;;;;;;;;;;;16.45;82.79;100413.66;5053598;28;991;-60
2022/10/16 09:32:11;;;;;;;;;;;;;;;16.46;82.26;100410.59;5053493;28;1237;-61
2022/10/16 09:34:39;;;;;;;;;;;;;;;16.48;82.00;100410.28;5052563;28;1978;-60
2022/10/16 09:37:09;;;;;;;;;;;;;;;16.48;82.21;100416.63;5053101;28;1559;-60
2022/10/16 09:39:53;;;;;;;;;;;;;;;16.48;82.32;100416.63;5053536;28;971;-61
2022/10/16 09:42:20;;;;;;;;;;;;;;;16.49;82.28;100420.19;5052431;28;1918;-61
2022/10/16 09:44:49;;;;;;;;;;;;;;;16.49;82.12;100412.72;5053476;28;967;-61
2022/10/16 09:47:19;;;;;;;;;;;;;;;16.50;82.51;100419.84;5053135;28;897;-61
2022/10/16 09:49:52;;;;;;;;;;;;;;;16.52;82.31;100422.28;5052630;28;1896;-60
2022/10/16 09:52:18;;;;;;;;;;;;;;;16.52;82.18;100422.28;5053204;28;1577;-61
2022/10/16 09:54:53;;;;;;;;;;;;;;;16.54;82.79;100422.78;5053523;28;936;-61
2022/10/16 09:57:18;;;;;;;;;;;;;;;16.54;82.31;100428.31;5052971;28;975;-61
2022/10/16 09:59:48;;;;;;;;;;;;;;;16.51;82.71;100435.28;5053405;28;814;-61
2022/10/16 10:02:14;;;;;;;;;;;;;;;16.52;82.14;100442.44;5053013;28;1950;-61
2022/10/16 10:04:41;;;;;;;;;;;;;;;16.52;82.61;100441.63;5052369;28;1942;-61
2022/10/16 10:07:16;;;;;;;;;;;;;;;16.49;82.76;100434.81;5046350;28;1777;-60
2022/10/16 10:09:44;;;;;;;;;;;;;;;16.50;82.12;100449.47;5051867;28;1592;-60
2022/10/16 10:12:18;;;;;;;;;;;;;;;16.51;82.47;100432.53;5053021;28;1236;-60
2022/10/16 10:14:46;;;;;;;;;;;;;;;16.51;81.99;100432.53;5053139;28;1039;-60
2022/10/16 10:17:13;;;;;;;;;;;;;;;16.49;82.24;100434.81;5052830;28;926;-61
2022/10/16 10:19:52;;;;;;;;;;;;;;;16.52;82.28;100433.34;5053075;28;1062;-61
2022/10/16 10:22:30;;;;;;;;;;;;;;;16.53;82.50;100443.28;5051269;28;1969;-60
2022/10/16 10:24:55;;;;;;;;;;;;;;;16.53;81.97;100443.28;5045278;28;1891;-61
2022/10/16 10:27:23;;;;;;;;;;;;;;;16.54;81.99;100442.13;5052552;28;1607;-61
2022/10/16 10:30:04;;;;;;;;;;;;;;;16.56;81.97;100442.63;5052801;28;975;-61
2022/10/16 10:32:39;;;;;;;;;;;;;;;16.56;81.24;100454.50;5052943;28;1261;-61
2022/10/16 10:35:21;;;;;;;;;;;;;;;16.58;80.98;100465.25;5052943;28;821;-61
2022/10/16 10:38:03;;;;;;;;;;;;;;;16.60;80.99;100468.47;5052713;28;928;-60
2022/10/16 10:40:31;;;;;;;;;;;;;;;16.60;81.14;100462.94;5046195;28;1801;-61
2022/10/16 10:43:02;;;;;;;;;;;;;;;16.61;81.26;100464.63;5052559;28;1958;-61
2022/10/16 10:45:36;;;;;;;;;;;;;;;16.63;81.56;100470.63;5052565;28;982;-61
2022/10/16 10:48:17;;;;;;;;;;;;;;;16.63;81.33;100470.63;5052595;28;1062;-61
2022/10/16 10:50:51;;;;;;;;;;;;;;;16.63;81.54;100471.47;5052657;28;1020;-61
2022/10/16 10:53:35;;;;;;;;;;;;;;;16.63;80.94;100473.41;5051619;28;1832;-60
2022/10/16 10:56:15;;;;;;;;;;;;;;;16.61;81.37;100464.63;5049739;28;1788;-59
2022/10/16 10:58:50;;;;;;;;;;;;;;;16.61;81.46;100465.44;5055693;28;1675;-61
2022/10/16 11:01:26;;;;;;;;;;;;;;;16.59;81.58;100461.31;5052511;28;1951;-61
2022/10/16 11:03:57;;;;;;;;;;;;;;;16.59;81.31;100466.84;5045678;28;1961;-60
2022/10/16 11:06:39;;;;;;;;;;;;;;;16.60;81.35;100469.28;5053759;28;1626;-61
2022/10/16 11:09:23;;;;;;;;;;;;;;;16.62;81.19;100466.25;5036375;28;931;-60
2022/10/16 11:11:53;;;;;;;;;;;;;;;16.63;80.37;100470.63;5036062;28;1197;-59
2022/10/16 11:14:29;;;;;;;;;;;;;;;16.63;80.77;100471.47;5043267;28;1780;-61
2022/10/16 11:16:54;;;;;;;;;;;;;;;16.63;80.53;100465.94;5052615;28;1784;-61
2022/10/16 11:19:28;;;;;;;;;;;;;;;16.66;80.50;100477.47;5050743;28;1927;-60
2022/10/16 11:22:00;;;;;;;;;;;;;;;16.66;80.49;100474.72;5052768;28;1793;-61
2022/10/16 11:24:37;;;;;;;;;;;;;;;16.65;80.72;100484.97;5049182;28;1910;-60
2022/10/16 11:27:07;;;;;;;;;;;;;;;16.70;79.81;100476.50;5047357;28;1682;-60
2022/10/16 11:29:33;;;;;;;;;;;;;;;16.80;78.85;100481.72;5041004;28;1794;-61
2022/10/16 11:32:03;;;;;;;;;;;;;;;16.80;78.88;100473.44;5049793;28;1719;-61
2022/10/16 11:34:33;;;;;;;;;;;;;;;16.78;79.23;100474.88;5050541;28;1883;-60
2022/10/16 11:37:01;;;;;;;;;;;;;;;16.77;79.08;100487.06;5053577;28;1551;-61
2022/10/16 11:39:27;;;;;;;;;;;;;;;16.74;78.95;100483.03;5054925;28;1915;-61
2022/10/16 11:42:03;;;;;;;;;;;;;;;16.75;78.93;100486.59;5053742;28;1881;-61
2022/10/16 11:44:37;;;;;;;;;;;;;;;16.76;79.25;100471.66;5055292;28;1889;-61
2022/10/16 11:47:14;;;;;;;;;;;;;;;16.77;79.81;100462.19;5055365;28;999;-61
2022/10/16 11:49:40;;;;;;;;;;;;;;;16.77;79.24;100459.44;5055544;28;840;-61
2022/10/16 11:52:17;;;;;;;;;;;;;;;16.78;79.19;100453.59;5053991;28;1965;-61
2022/10/16 11:54:59;;;;;;;;;;;;;;;16.79;79.42;100469.03;5055122;28;1578;-61
2022/10/16 11:57:27;;;;;;;;;;;;;;;16.78;79.47;100464.66;5054917;28;873;-61
2022/10/16 11:59:56;;;;;;;;;;;;;;;16.78;79.45;100461.88;5055271;28;987;-61
2022/10/16 12:02:34;;;;;;;;;;;;;;;16.78;79.89;100472.13;5053975;28;1968;-61
2022/10/16 12:05:01;;;;;;;;;;;;;;;16.79;78.68;100465.47;5052688;28;1925;-61
2022/10/16 12:07:32;;;;;;;;;;;;;;;16.85;78.86;100476.03;5048474;28;1845;-61
2022/10/16 12:10:00;;;;;;;;;;;;;;;16.96;79.07;100466.31;5051040;28;1932;-61
2022/10/16 12:12:26;;;;;;;;;;;;;;;16.99;79.54;100471.19;5046587;28;1799;-61
2022/10/16 12:15:02;;;;;;;;;;;;;;;16.97;79.14;100479.00;5054239;28;1710;-61
2022/10/16 12:17:35;;;;;;;;;;;;;;;16.95;79.70;100472.16;5053983;28;1621;-61
2022/10/16 12:20:15;;;;;;;;;;;;;;;16.92;79.45;100479.16;5053363;28;1788;-61
2022/10/16 12:22:55;;;;;;;;;;;;;;;16.90;79.58;100473.13;5051249;28;1961;-61
2022/10/16 12:25:31;;;;;;;;;;;;;;;16.89;79.65;100479.81;5047861;28;1571;-60
2022/10/16 12:28:17;;;;;;;;;;;;;;;16.88;79.35;100480.94;5050201;28;1052;-60
2022/10/16 12:30:51;;;;;;;;;;;;;;;16.87;80.22;100476.53;5034810;28;884;-61
2022/10/16 12:33:22;;;;;;;;;;;;;;;16.87;79.66;100479.31;5034754;28;865;-60
2022/10/16 12:35:47;;;;;;;;;;;;;;;16.87;79.60;100481.25;5045808;28;1871;-61
2022/10/16 12:38:17;;;;;;;;;;;;;;;16.88;79.58;100488.41;5053139;28;1620;-61
2022/10/16 12:40:44;;;;;;;;;;;;;;;16.86;80.29;100491.50;5054403;28;991;-60
2022/10/16 12:43:26;;;;;;;;;;;;;;;16.86;80.12;100491.50;5054469;28;1953;-61
2022/10/16 12:46:03;;;;;;;;;;;;;;;16.87;80.04;100489.53;5053561;28;1038;-61
2022/10/16 12:48:29;;;;;;;;;;;;;;;16.87;79.85;100493.13;5054309;28;1076;-61
2022/10/16 12:50:54;;;;;;;;;;;;;;;16.88;79.88;100493.94;5052697;28;2083;-61
2022/10/16 12:53:19;;;;;;;;;;;;;;;16.85;80.03;100492.63;5053876;28;1832;-60